createdAt,value
2022-10-09T00:00:45.409Z,97174.47
2022-10-09T00:01:46.927Z,97172.81
2022-10-09T00:02:48.771Z,97178.00
2022-10-09T00:03:52.872Z,97172.50
2022-10-09T00:04:54.402Z,97176.81
2022-10-09T00:05:55.938Z,97179.66
2022-10-09T00:06:57.477Z,97179.34
2022-10-09T00:07:59.045Z,97182.94
2022-10-09T00:09:02.224Z,97185.19
2022-10-09T00:10:04.482Z,97180.13
2022-10-09T00:11:07.703Z,97180.94
2022-10-09T00:12:09.257Z,97184.06
2022-10-09T00:13:11.698Z,97179.81
2022-10-09T00:14:13.241Z,97178.69
2022-10-09T00:15:14.946Z,97179.47
2022-10-09T00:16:17.812Z,97184.16
2022-10-09T00:17:19.374Z,97177.38
2022-10-09T00:18:20.953Z,97177.78
2022-10-09T00:19:22.493Z,97185.88
2022-10-09T00:20:24.037Z,97177.13
2022-10-09T00:21:26.961Z,97177.56
2022-10-09T00:22:28.756Z,97178.81
2022-10-09T00:23:30.456Z,97175.97
2022-10-09T00:24:31.957Z,97180.63
2022-10-09T00:25:34.256Z,97173.53
2022-10-09T00:26:35.871Z,97179.56
2022-10-09T00:27:37.408Z,97176.44
2022-10-09T00:28:39.175Z,97176.00
2022-10-09T00:29:40.761Z,97178.69
2022-10-09T00:30:42.329Z,97174.88
2022-10-09T00:31:43.898Z,97176.44
2022-10-09T00:32:45.689Z,97172.19
2022-10-09T00:33:47.858Z,97174.09
2022-10-09T00:34:49.395Z,97172.41
2022-10-09T00:35:51.394Z,97169.38
2022-10-09T00:36:52.924Z,97170.75
2022-10-09T00:37:54.471Z,97166.81
2022-10-09T00:38:56.611Z,97173.31
2022-10-09T00:39:58.585Z,97168.63
2022-10-09T00:41:00.446Z,97175.81
2022-10-09T00:42:02.692Z,97173.34
2022-10-09T00:43:05.315Z,97175.59
2022-10-09T00:44:47.439Z,97168.72
2022-10-09T00:45:53.381Z,97177.25
2022-10-09T00:46:55.216Z,97165.81
2022-10-09T00:48:01.794Z,97159.53
2022-10-09T00:49:30.805Z,97160.31
2022-10-09T00:50:38.219Z,97164.13
2022-10-09T00:51:42.107Z,97161.09
2022-10-09T00:52:44.590Z,97161.91
2022-10-09T00:53:46.148Z,97154.94
2022-10-09T00:54:47.704Z,97163.47
2022-10-09T00:55:49.769Z,97155.41
2022-10-09T00:56:51.886Z,97153.50
2022-10-09T00:57:56.125Z,97154.38
2022-10-09T00:58:58.242Z,97157.41
2022-10-09T01:00:02.799Z,97155.59
2022-10-09T01:01:04.369Z,97153.81
2022-10-09T01:02:05.996Z,97157.06
2022-10-09T01:03:07.601Z,97156.03
2022-10-09T01:04:09.258Z,97154.25
2022-10-09T01:05:11.236Z,97162.75
2022-10-09T01:06:41.727Z,97158.28
2022-10-09T01:08:05.755Z,97161.41
2022-10-09T01:09:19.977Z,97160.28
2022-10-09T01:10:39.632Z,97153.00
2022-10-09T01:12:06.049Z,97153.78
2022-10-09T01:13:18.568Z,97158.72
2022-10-09T01:14:29.421Z,97151.31
2022-10-09T01:15:45.363Z,97162.09
2022-10-09T01:17:05.273Z,97156.72
2022-10-09T01:18:18.842Z,97145.94
2022-10-09T01:19:50.137Z,97152.44
2022-10-09T01:20:58.774Z,97135.84
2022-10-09T01:22:30.800Z,97148.19
2022-10-09T01:23:57.072Z,97145.16
2022-10-09T01:25:10.854Z,97150.88
2022-10-09T01:26:34.088Z,97147.84
2022-10-09T01:27:37.867Z,97143.25
2022-10-09T01:28:43.623Z,97147.50
2022-10-09T01:29:48.919Z,97144.47
2022-10-09T01:30:50.896Z,97141.44
2022-10-09T01:31:52.787Z,97145.69
2022-10-09T01:32:56.057Z,97148.81
2022-10-09T01:34:01.062Z,97148.47
2022-10-09T01:35:05.759Z,97154.66
2022-10-09T01:36:09.985Z,97145.47
2022-10-09T01:37:14.866Z,97148.56
2022-10-09T01:38:17.532Z,97149.28
2022-10-09T01:39:22.675Z,97149.28
2022-10-09T01:40:26.794Z,97146.56
2022-10-09T01:41:29.465Z,97148.41
2022-10-09T01:42:32.883Z,97147.84
2022-10-09T01:43:34.675Z,97153.13
2022-10-09T01:44:36.259Z,97148.06
2022-10-09T01:45:43.456Z,97151.75
2022-10-09T01:46:45.579Z,97145.28
2022-10-09T01:47:47.221Z,97152.47
2022-10-09T01:48:57.406Z,97150.56
2022-10-09T01:50:24.561Z,97149.81
2022-10-09T01:51:30.629Z,97146.88
2022-10-09T01:52:48.761Z,97147.56
2022-10-09T01:53:54.184Z,97148.91
2022-10-09T01:55:17.295Z,97148.13
2022-10-09T01:56:22.102Z,97148.22
2022-10-09T01:57:51.800Z,97151.47
2022-10-09T01:58:58.348Z,97153.16
2022-10-09T02:00:07.181Z,97164.03
2022-10-09T02:01:11.801Z,97159.22
2022-10-09T02:02:13.652Z,97162.81
2022-10-09T02:03:16.919Z,97166.28
2022-10-09T02:04:19.105Z,97157.53
2022-10-09T02:05:28.031Z,97160.69
2022-10-09T02:06:31.260Z,97163.81
2022-10-09T02:07:33.935Z,97170.09
2022-10-09T02:08:38.727Z,97164.69
2022-10-09T02:09:41.047Z,97162.91
2022-10-09T02:10:45.498Z,97165.28
2022-10-09T02:11:53.057Z,97169.97
2022-10-09T02:12:59.916Z,97175.03
2022-10-09T02:14:01.752Z,97168.53
2022-10-09T02:15:03.588Z,97168.97
2022-10-09T02:16:11.373Z,97170.22
2022-10-09T02:17:18.136Z,97173.34
2022-10-09T02:18:45.496Z,97166.50
2022-10-09T02:20:03.811Z,97166.63
2022-10-09T02:21:16.271Z,97172.00
2022-10-09T02:22:30.283Z,97176.72
2022-10-09T02:23:33.045Z,97165.38
2022-10-09T02:24:36.864Z,97184.66
2022-10-09T02:25:38.934Z,97169.31
2022-10-09T02:26:41.107Z,97179.38
2022-10-09T02:27:42.748Z,97177.16
2022-10-09T02:28:46.087Z,97177.59
2022-10-09T02:29:48.842Z,97180.28
2022-10-09T02:31:14.776Z,97179.50
2022-10-09T02:32:17.072Z,97176.78
2022-10-09T02:33:18.704Z,97184.13
2022-10-09T02:34:20.921Z,97182.19
2022-10-09T02:35:22.627Z,97184.13
2022-10-09T02:36:25.662Z,97185.88
2022-10-09T02:37:27.201Z,97190.38
2022-10-09T02:38:29.372Z,97188.13
2022-10-09T02:39:30.909Z,97190.81
2022-10-09T02:40:32.400Z,97193.50
2022-10-09T02:41:34.880Z,97190.16
2022-10-09T02:42:36.541Z,97187.91
2022-10-09T02:43:38.048Z,97185.63
2022-10-09T02:44:39.651Z,97187.41
2022-10-09T02:45:41.262Z,97194.56
2022-10-09T02:46:43.229Z,97192.19
2022-10-09T02:47:44.765Z,97188.16
2022-10-09T02:48:46.302Z,97194.53
2022-10-09T02:49:47.840Z,97194.59
2022-10-09T02:50:49.355Z,97192.91
2022-10-09T02:51:50.956Z,97193.59
2022-10-09T02:52:52.482Z,97199.88
2022-10-09T02:53:54.742Z,97201.69
2022-10-09T02:54:56.266Z,97200.25
2022-10-09T02:55:57.769Z,97194.06
2022-10-09T02:56:59.279Z,97201.03
2022-10-09T02:58:00.803Z,97201.03
2022-10-09T02:59:02.375Z,97211.78
2022-10-09T03:00:04.458Z,97206.84
2022-10-09T03:01:06.152Z,97205.84
2022-10-09T03:02:07.743Z,97213.25
2022-10-09T03:03:09.328Z,97206.88
2022-10-09T03:04:10.982Z,97209.38
2022-10-09T03:05:12.737Z,97217.91
2022-10-09T03:06:20.329Z,97214.84
2022-10-09T03:07:21.901Z,97210.94
2022-10-09T03:08:23.424Z,97204.00
2022-10-09T03:09:25.146Z,97214.94
2022-10-09T03:10:26.930Z,97207.88
2022-10-09T03:11:28.517Z,97205.84
2022-10-09T03:12:30.180Z,97207.31
2022-10-09T03:13:32.501Z,97211.78
2022-10-09T03:14:35.140Z,97213.34
2022-10-09T03:15:37.582Z,97213.00
2022-10-09T03:16:39.145Z,97211.56
2022-10-09T03:17:40.858Z,97212.69
2022-10-09T03:18:43.376Z,97210.47
2022-10-09T03:19:44.906Z,97215.16
2022-10-09T03:20:46.727Z,97215.84
2022-10-09T03:21:48.268Z,97214.25
2022-10-09T03:22:50.052Z,97213.47
2022-10-09T03:23:53.439Z,97214.56
2022-10-09T03:24:55.010Z,97216.94
2022-10-09T03:25:58.173Z,97213.16
2022-10-09T03:26:59.685Z,97209.78
2022-10-09T03:28:01.520Z,97212.25
2022-10-09T03:29:03.245Z,97206.22
2022-10-09T03:30:05.429Z,97210.94
2022-10-09T03:31:07.936Z,97204.78
2022-10-09T03:32:09.590Z,97208.69
2022-10-09T03:33:11.357Z,97213.63
2022-10-09T03:34:13.002Z,97208.00
2022-10-09T03:35:14.664Z,97211.38
2022-10-09T03:36:16.255Z,97218.97
2022-10-09T03:37:18.378Z,97215.69
2022-10-09T03:38:19.967Z,97214.91
2022-10-09T03:39:21.472Z,97209.53
2022-10-09T03:40:23.019Z,97210.66
2022-10-09T03:41:24.567Z,97217.34
2022-10-09T03:42:26.184Z,97210.53
2022-10-09T03:43:28.906Z,97210.88
2022-10-09T03:44:30.431Z,97207.84
2022-10-09T03:45:32.006Z,97215.56
2022-10-09T03:46:33.648Z,97212.41
2022-10-09T03:47:35.197Z,97215.31
2022-10-09T03:48:36.976Z,97212.19
2022-10-09T03:49:38.492Z,97212.31
2022-10-09T03:50:41.154Z,97208.84
2022-10-09T03:51:42.700Z,97208.75
2022-10-09T03:52:44.216Z,97212.00
2022-10-09T03:53:45.735Z,97219.84
2022-10-09T03:54:47.361Z,97219.22
2022-10-09T03:55:48.899Z,97221.91
2022-10-09T03:56:50.419Z,97212.25
2022-10-09T03:57:51.950Z,97219.06
2022-10-09T03:58:53.505Z,97218.31
2022-10-09T03:59:55.069Z,97213.25
2022-10-09T04:00:56.870Z,97216.59
2022-10-09T04:01:58.413Z,97218.06
2022-10-09T04:03:00.265Z,97217.16
2022-10-09T04:04:02.121Z,97221.63
2022-10-09T04:05:03.863Z,97220.03
2022-10-09T04:06:05.799Z,97215.97
2022-10-09T04:07:07.340Z,97209.81
2022-10-09T04:08:09.452Z,97221.25
2022-10-09T04:09:11.019Z,97215.38
2022-10-09T04:10:13.059Z,97218.59
2022-10-09T04:11:14.612Z,97216.09
2022-10-09T04:12:16.129Z,97218.97
2022-10-09T04:13:17.621Z,97218.06
2022-10-09T04:14:19.176Z,97215.84
2022-10-09T04:15:20.782Z,97217.41
2022-10-09T04:16:22.419Z,97222.13
2022-10-09T04:17:24.059Z,97219.56
2022-10-09T04:18:25.641Z,97221.47
2022-10-09T04:19:27.199Z,97224.63
2022-10-09T04:20:29.185Z,97221.63
2022-10-09T04:21:30.681Z,97222.06
2022-10-09T04:22:32.245Z,97220.94
2022-10-09T04:23:33.832Z,97226.00
2022-10-09T04:24:35.369Z,97223.75
2022-10-09T04:25:36.929Z,97225.31
2022-10-09T04:26:38.869Z,97225.03
2022-10-09T04:27:40.406Z,97227.53
2022-10-09T04:28:42.103Z,97222.25
2022-10-09T04:29:43.675Z,97227.75
2022-10-09T04:30:45.194Z,97226.31
2022-10-09T04:31:46.747Z,97225.22
2022-10-09T04:32:48.770Z,97227.13
2022-10-09T04:33:50.596Z,97225.53
2022-10-09T04:34:52.125Z,97230.13
2022-10-09T04:35:55.325Z,97222.53
2022-10-09T04:36:56.850Z,97232.16
2022-10-09T04:37:58.379Z,97223.16
2022-10-09T04:39:00.000Z,97225.16
2022-10-09T04:40:01.552Z,97222.78
2022-10-09T04:41:05.821Z,97224.22
2022-10-09T04:42:07.622Z,97218.66
2022-10-09T04:43:09.230Z,97218.34
2022-10-09T04:44:10.760Z,97228.88
2022-10-09T04:45:12.432Z,97227.13
2022-10-09T04:46:15.360Z,97219.34
2022-10-09T04:47:17.562Z,97223.72
2022-10-09T04:48:19.598Z,97226.22
2022-10-09T04:49:21.176Z,97226.81
2022-10-09T04:50:22.883Z,97231.78
2022-10-09T04:51:24.407Z,97226.84
2022-10-09T04:52:26.278Z,97229.09
2022-10-09T04:53:27.768Z,97230.63
2022-10-09T04:54:29.285Z,97228.41
2022-10-09T04:55:30.876Z,97228.41
2022-10-09T04:56:32.715Z,97229.31
2022-10-09T04:57:34.265Z,97225.22
2022-10-09T04:58:36.625Z,97234.50
2022-10-09T04:59:38.149Z,97238.13
2022-10-09T05:00:41.888Z,97239.84
2022-10-09T05:01:43.584Z,97239.84
2022-10-09T05:02:45.203Z,97244.44
2022-10-09T05:03:47.007Z,97246.66
2022-10-09T05:04:48.537Z,97236.56
2022-10-09T05:05:50.106Z,97247.31
2022-10-09T05:06:51.628Z,97245.75
2022-10-09T05:07:53.166Z,97241.66
2022-10-09T05:08:55.860Z,97249.72
2022-10-09T05:09:57.888Z,97249.38
2022-10-09T05:11:07.437Z,97243.34
2022-10-09T05:12:09.292Z,97244.13
2022-10-09T05:13:10.893Z,97245.44
2022-10-09T05:14:12.424Z,97249.34
2022-10-09T05:15:14.024Z,97244.88
2022-10-09T05:16:18.705Z,97250.03
2022-10-09T05:17:23.338Z,97250.97
2022-10-09T05:18:25.528Z,97251.88
2022-10-09T05:19:27.068Z,97251.53
2022-10-09T05:20:29.585Z,97252.13
2022-10-09T05:21:31.245Z,97244.50
2022-10-09T05:22:32.791Z,97251.22
2022-10-09T05:23:35.640Z,97253.19
2022-10-09T05:24:37.170Z,97248.59
2022-10-09T05:25:38.753Z,97252.78
2022-10-09T05:26:40.289Z,97257.13
2022-10-09T05:27:41.943Z,97253.84
2022-10-09T05:28:44.009Z,97253.84
2022-10-09T05:29:45.538Z,97257.88
2022-10-09T05:30:47.082Z,97259.28
2022-10-09T05:31:49.763Z,97262.88
2022-10-09T05:32:51.757Z,97259.75
2022-10-09T05:33:54.782Z,97260.19
2022-10-09T05:34:56.330Z,97265.34
2022-10-09T05:36:00.466Z,97268.81
2022-10-09T05:37:02.050Z,97268.41
2022-10-09T05:38:03.645Z,97265.53
2022-10-09T05:39:05.242Z,97266.44
2022-10-09T05:40:07.506Z,97276.31
2022-10-09T05:41:13.186Z,97268.50
2022-10-09T05:42:14.804Z,97274.78
2022-10-09T05:43:16.325Z,97270.44
2022-10-09T05:44:17.898Z,97273.03
2022-10-09T05:45:19.427Z,97275.63
2022-10-09T05:46:23.844Z,97279.38
2022-10-09T05:47:25.361Z,97280.03
2022-10-09T05:48:26.887Z,97277.38
2022-10-09T05:49:28.439Z,97276.59
2022-10-09T05:50:29.959Z,97279.19
2022-10-09T05:51:33.703Z,97279.31
2022-10-09T05:52:35.826Z,97284.13
2022-10-09T05:53:38.004Z,97282.16
2022-10-09T05:54:39.958Z,97281.00
2022-10-09T05:55:44.069Z,97282.13
2022-10-09T05:56:46.088Z,97280.63
2022-10-09T05:57:47.871Z,97285.88
2022-10-09T05:58:55.442Z,97282.28
2022-10-09T05:59:56.992Z,97289.78
2022-10-09T06:01:00.430Z,97277.28
2022-10-09T06:02:02.158Z,97281.75
2022-10-09T06:03:04.055Z,97277.69
2022-10-09T06:04:13.567Z,97284.41
2022-10-09T06:05:15.184Z,97289.75
2022-10-09T06:06:17.531Z,97293.06
2022-10-09T06:07:19.056Z,97298.00
2022-10-09T06:08:20.565Z,97294.72
2022-10-09T06:09:25.529Z,97301.94
2022-10-09T06:10:30.259Z,97299.16
2022-10-09T06:11:36.542Z,97301.34
2022-10-09T06:12:38.060Z,97306.06
2022-10-09T06:13:40.455Z,97295.78
2022-10-09T06:14:41.974Z,97308.25
2022-10-09T06:15:53.900Z,97301.88
2022-10-09T06:16:55.499Z,97308.84
2022-10-09T06:17:57.050Z,97302.75
2022-10-09T06:18:59.021Z,97305.97
2022-10-09T06:20:00.662Z,97306.03
2022-10-09T06:21:02.613Z,97312.34
2022-10-09T06:22:04.144Z,97307.53
2022-10-09T06:23:05.672Z,97314.50
2022-10-09T06:24:07.816Z,97312.75
2022-10-09T06:25:09.740Z,97314.50
2022-10-09T06:26:13.287Z,97311.41
2022-10-09T06:27:14.792Z,97315.69
2022-10-09T06:28:16.358Z,97320.84
2022-10-09T06:29:17.947Z,97323.28
2022-10-09T06:30:19.485Z,97314.63
2022-10-09T06:31:23.233Z,97320.47
2022-10-09T06:32:24.904Z,97324.47
2022-10-09T06:33:30.669Z,97320.78
2022-10-09T06:34:32.200Z,97324.78
2022-10-09T06:35:36.543Z,97319.59
2022-10-09T06:36:38.108Z,97328.84
2022-10-09T06:37:39.623Z,97318.06
2022-10-09T06:38:42.288Z,97322.91
2022-10-09T06:39:43.846Z,97329.41
2022-10-09T06:40:45.338Z,97329.63
2022-10-09T06:41:46.907Z,97330.19
2022-10-09T06:42:48.702Z,97323.69
2022-10-09T06:43:56.349Z,97328.91
2022-10-09T06:44:57.878Z,97322.13
2022-10-09T06:46:05.634Z,97327.03
2022-10-09T06:47:07.186Z,97326.34
2022-10-09T06:48:08.699Z,97327.19
2022-10-09T06:49:10.893Z,97330.38
2022-10-09T06:50:12.542Z,97329.41
2022-10-09T06:51:17.085Z,97329.84
2022-10-09T06:52:18.605Z,97322.13
2022-10-09T06:53:20.107Z,97333.81
2022-10-09T06:54:21.625Z,97332.97
2022-10-09T06:55:27.831Z,97332.72
2022-10-09T06:56:31.873Z,97323.63
2022-10-09T06:57:33.520Z,97325.47
2022-10-09T06:58:35.582Z,97319.41
2022-10-09T06:59:37.156Z,97325.75
2022-10-09T07:00:38.695Z,97328.47
2022-10-09T07:01:40.511Z,97326.63
2022-10-09T07:02:44.218Z,97326.19
2022-10-09T07:03:52.074Z,97328.69
2022-10-09T07:04:53.597Z,97319.72
2022-10-09T07:05:55.203Z,97324.63
2022-10-09T07:06:56.724Z,97319.34
2022-10-09T07:07:58.249Z,97323.63
2022-10-09T07:09:02.588Z,97322.16
2022-10-09T07:10:04.342Z,97333.16
2022-10-09T07:11:14.482Z,97332.00
2022-10-09T07:12:15.999Z,97334.06
2022-10-09T07:13:17.529Z,97330.66
2022-10-09T07:14:19.202Z,97329.09
2022-10-09T07:15:20.738Z,97329.78
2022-10-09T07:16:25.069Z,97331.16
2022-10-09T07:17:27.456Z,97329.69
2022-10-09T07:18:28.992Z,97332.38
2022-10-09T07:19:30.487Z,97328.16
2022-10-09T07:20:32.019Z,97327.19
2022-10-09T07:21:34.768Z,97329.47
2022-10-09T07:22:36.378Z,97326.56
2022-10-09T07:23:38.002Z,97330.81
2022-10-09T07:24:39.616Z,97332.91
2022-10-09T07:25:41.119Z,97334.41
2022-10-09T07:26:45.209Z,97333.03
2022-10-09T07:27:46.760Z,97331.59
2022-10-09T07:28:49.273Z,97336.22
2022-10-09T07:29:50.948Z,97329.81
2022-10-09T07:30:53.631Z,97332.94
2022-10-09T07:31:55.172Z,97324.50
2022-10-09T07:32:56.705Z,97324.44
2022-10-09T07:33:58.731Z,97328.09
2022-10-09T07:35:00.237Z,97329.41
2022-10-09T07:36:03.515Z,97325.69
2022-10-09T07:37:05.099Z,97327.91
2022-10-09T07:38:06.653Z,97326.50
2022-10-09T07:39:08.209Z,97324.09
2022-10-09T07:40:09.980Z,97326.47
2022-10-09T07:41:12.963Z,97321.16
2022-10-09T07:42:14.507Z,97319.16
2022-10-09T07:43:16.275Z,97322.28
2022-10-09T07:44:18.890Z,97327.78
2022-10-09T07:45:20.480Z,97325.72
2022-10-09T07:46:23.933Z,97314.91
2022-10-09T07:47:25.612Z,97323.22
2022-10-09T07:48:27.821Z,97321.38
2022-10-09T07:49:29.399Z,97319.72
2022-10-09T07:50:30.969Z,97318.63
2022-10-09T07:51:32.753Z,97322.50
2022-10-09T07:52:34.287Z,97324.53
2022-10-09T07:53:36.175Z,97316.94
2022-10-09T07:54:37.771Z,97310.13
2022-10-09T07:55:45.585Z,97316.22
2022-10-09T07:56:47.131Z,97320.88
2022-10-09T07:57:48.651Z,97316.38
2022-10-09T07:59:00.823Z,97322.88
2022-10-09T08:00:03.151Z,97324.28
2022-10-09T08:01:06.725Z,97322.84
2022-10-09T08:02:08.984Z,97324.28
2022-10-09T08:03:11.258Z,97315.66
2022-10-09T08:04:12.834Z,97318.72
2022-10-09T08:05:14.496Z,97318.47
2022-10-09T08:06:16.886Z,97313.66
2022-10-09T08:07:18.437Z,97317.31
2022-10-09T08:08:19.989Z,97312.81
2022-10-09T08:09:21.527Z,97311.69
2022-10-09T08:10:23.082Z,97306.91
2022-10-09T08:11:26.872Z,97308.91
2022-10-09T08:12:28.434Z,97306.75
2022-10-09T08:13:29.957Z,97306.25
2022-10-09T08:14:31.576Z,97304.03
2022-10-09T08:15:33.176Z,97310.41
2022-10-09T08:16:34.741Z,97295.63
2022-10-09T08:17:36.385Z,97308.47
2022-10-09T08:18:37.977Z,97302.72
2022-10-09T08:19:39.619Z,97297.97
2022-10-09T08:20:41.183Z,97298.63
2022-10-09T08:21:42.785Z,97300.75
2022-10-09T08:22:44.302Z,97303.81
2022-10-09T08:23:46.756Z,97296.41
2022-10-09T08:24:48.294Z,97293.59
2022-10-09T08:25:50.009Z,97300.41
2022-10-09T08:26:51.528Z,97294.97
2022-10-09T08:27:53.856Z,97302.69
2022-10-09T08:29:01.176Z,97292.53
2022-10-09T08:30:02.777Z,97293.41
2022-10-09T08:31:16.262Z,97287.50
2022-10-09T08:32:17.799Z,97289.31
2022-10-09T08:33:21.949Z,97288.81
2022-10-09T08:34:23.550Z,97292.44
2022-10-09T08:35:25.194Z,97281.31
2022-10-09T08:36:26.914Z,97283.34
2022-10-09T08:37:28.443Z,97288.38
2022-10-09T08:38:46.617Z,97284.50
2022-10-09T08:39:48.520Z,97282.72
2022-10-09T08:40:59.157Z,97290.13
2022-10-09T08:42:04.118Z,97277.78
2022-10-09T08:43:07.223Z,97280.16
2022-10-09T08:44:15.360Z,97275.47
2022-10-09T08:45:18.587Z,97271.63
2022-10-09T08:46:35.403Z,97275.50
2022-10-09T08:47:50.580Z,97271.31
2022-10-09T08:48:54.152Z,97266.31
2022-10-09T08:50:17.422Z,97276.84
2022-10-09T08:51:24.271Z,97271.09
2022-10-09T08:52:56.304Z,97263.69
2022-10-09T08:54:29.919Z,97271.50
2022-10-09T08:55:36.033Z,97267.31
2022-10-09T08:56:38.108Z,97261.50
2022-10-09T08:57:39.967Z,97262.28
2022-10-09T08:58:43.837Z,97261.09
2022-10-09T08:59:45.397Z,97257.91
2022-10-09T09:00:58.139Z,97257.50
2022-10-09T09:02:08.391Z,97253.13
2022-10-09T09:03:51.460Z,97253.75
2022-10-09T09:05:03.002Z,97257.56
2022-10-09T09:06:30.927Z,97255.75
2022-10-09T09:07:45.221Z,97248.78
2022-10-09T09:09:10.662Z,97249.19
2022-10-09T09:10:33.937Z,97243.75
2022-10-09T09:11:35.404Z,97252.88
2022-10-09T09:13:02.015Z,97249.78
2022-10-09T09:14:13.037Z,97247.56
2022-10-09T09:15:22.659Z,97241.47
2022-10-09T09:16:46.636Z,97249.28
2022-10-09T09:18:14.659Z,97240.81
2022-10-09T09:19:22.341Z,97248.53
2022-10-09T09:20:29.298Z,97244.97
2022-10-09T09:21:47.445Z,97242.25
2022-10-09T09:22:50.391Z,97234.88
2022-10-09T09:23:52.245Z,97233.72
2022-10-09T09:24:57.108Z,97235.66
2022-10-09T09:25:59.689Z,97236.66
2022-10-09T09:27:10.320Z,97237.38
2022-10-09T09:28:23.936Z,97230.72
2022-10-09T09:29:26.778Z,97230.00
2022-10-09T09:30:34.000Z,97235.72
2022-10-09T09:31:37.257Z,97229.13
2022-10-09T09:32:48.547Z,97231.84
2022-10-09T09:34:04.748Z,97230.72
2022-10-09T09:35:36.327Z,97231.25
2022-10-09T09:36:46.755Z,97232.94
2022-10-09T09:37:48.315Z,97232.22
2022-10-09T09:39:35.131Z,97230.31
2022-10-09T09:40:36.852Z,97230.72
2022-10-09T09:41:39.559Z,97222.25
2022-10-09T09:42:42.121Z,97231.19
2022-10-09T09:43:43.804Z,97228.44
2022-10-09T09:44:58.588Z,97227.59
2022-10-09T09:46:01.780Z,97232.19
2022-10-09T09:47:03.389Z,97227.50
2022-10-09T09:48:20.064Z,97224.72
2022-10-09T09:49:27.220Z,97217.34
2022-10-09T09:50:46.935Z,97216.66
2022-10-09T09:51:50.923Z,97222.16
2022-10-09T09:52:53.208Z,97219.47
2022-10-09T09:53:59.463Z,97216.78
2022-10-09T09:55:01.168Z,97215.63
2022-10-09T09:56:03.713Z,97218.78
2022-10-09T09:57:15.922Z,97220.75
2022-10-09T09:58:21.255Z,97218.44
2022-10-09T09:59:25.777Z,97225.44
2022-10-09T10:00:27.522Z,97221.56
2022-10-09T10:01:31.605Z,97221.91
2022-10-09T10:02:33.132Z,97215.28
2022-10-09T10:03:36.009Z,97222.59
2022-10-09T10:04:42.441Z,97218.69
2022-10-09T10:05:44.881Z,97220.56
2022-10-09T10:06:46.484Z,97215.50
2022-10-09T10:07:50.134Z,97219.06
2022-10-09T10:09:04.564Z,97217.47
2022-10-09T10:10:35.463Z,97212.78
2022-10-09T10:11:37.101Z,97220.16
2022-10-09T10:12:48.115Z,97209.28
2022-10-09T10:13:50.108Z,97211.22
2022-10-09T10:14:51.841Z,97207.34
2022-10-09T10:15:57.858Z,97207.34
2022-10-09T10:17:01.023Z,97210.47
2022-10-09T10:18:06.573Z,97213.22
2022-10-09T10:19:21.070Z,97205.88
2022-10-09T10:20:22.825Z,97202.81
2022-10-09T10:21:24.568Z,97207.50
2022-10-09T10:22:28.090Z,97198.94
2022-10-09T10:23:51.503Z,97200.53
2022-10-09T10:24:57.675Z,97195.84
2022-10-09T10:26:03.530Z,97195.06
2022-10-09T10:27:09.526Z,97196.59
2022-10-09T10:28:22.409Z,97192.34
2022-10-09T10:29:31.919Z,97188.06
2022-10-09T10:30:35.713Z,97188.00
2022-10-09T10:32:00.380Z,97184.50
2022-10-09T10:33:07.958Z,97184.91
2022-10-09T10:34:23.354Z,97182.19
2022-10-09T10:35:29.284Z,97175.59
2022-10-09T10:36:33.916Z,97176.38
2022-10-09T10:37:47.769Z,97177.16
2022-10-09T10:38:54.959Z,97171.72
2022-10-09T10:39:59.508Z,97174.03
2022-10-09T10:41:24.460Z,97165.06
2022-10-09T10:42:50.859Z,97173.19
2022-10-09T10:44:06.216Z,97163.81
2022-10-09T10:45:17.466Z,97171.19
2022-10-09T10:46:31.062Z,97164.53
2022-10-09T10:47:37.224Z,97162.94
2022-10-09T10:48:47.018Z,97155.13
2022-10-09T10:49:48.608Z,97157.84
2022-10-09T10:51:15.021Z,97160.56
2022-10-09T10:52:51.711Z,97156.63
2022-10-09T10:54:08.224Z,97144.94
2022-10-09T10:55:26.841Z,97146.44
2022-10-09T10:56:43.174Z,97142.13
2022-10-09T10:57:53.351Z,97144.78
2022-10-09T10:59:10.267Z,97134.63
2022-10-09T11:00:13.992Z,97138.13
2022-10-09T11:01:28.101Z,97132.22
2022-10-09T11:02:54.849Z,97132.97
2022-10-09T11:04:17.546Z,97132.94
2022-10-09T11:05:36.405Z,97129.03
2022-10-09T11:06:59.284Z,97130.97
2022-10-09T11:08:29.044Z,97127.47
2022-10-09T11:09:52.112Z,97130.19
2022-10-09T11:11:03.423Z,97129.03
2022-10-09T11:12:30.156Z,97128.31
2022-10-09T11:13:51.187Z,97121.38
2022-10-09T11:15:05.773Z,97110.47
2022-10-09T11:16:43.431Z,97110.44
2022-10-09T11:17:47.793Z,97109.28
2022-10-09T11:18:59.674Z,97105.84
2022-10-09T11:20:16.510Z,97112.84
2022-10-09T11:21:20.671Z,97106.88
2022-10-09T11:22:31.335Z,97112.25
2022-10-09T11:23:53.633Z,97094.28
2022-10-09T11:25:06.782Z,97104.81
2022-10-09T11:26:51.096Z,97100.38
2022-10-09T11:28:03.094Z,97099.94
2022-10-09T11:29:07.326Z,97098.38
2022-10-09T11:30:10.380Z,97102.31
2022-10-09T11:31:19.885Z,97098.84
2022-10-09T11:32:59.741Z,97093.38
2022-10-09T11:34:10.452Z,97088.69
2022-10-09T11:35:11.959Z,97091.00
2022-10-09T11:36:43.358Z,97081.91
2022-10-09T11:37:53.537Z,97086.22
2022-10-09T11:38:59.471Z,97084.22
2022-10-09T11:40:17.498Z,97083.81
2022-10-09T11:41:19.917Z,97076.22
2022-10-09T11:42:24.298Z,97082.53
2022-10-09T11:43:25.800Z,97082.13
2022-10-09T11:44:30.086Z,97073.81
2022-10-09T11:45:47.762Z,97077.00
2022-10-09T11:47:01.718Z,97076.66
2022-10-09T11:48:30.588Z,97073.03
2022-10-09T11:49:38.220Z,97076.03
2022-10-09T11:50:53.439Z,97081.34
2022-10-09T11:52:04.156Z,97075.56
2022-10-09T11:53:11.644Z,97078.41
2022-10-09T11:54:16.663Z,97075.34
2022-10-09T11:55:19.732Z,97075.38
2022-10-09T11:56:22.801Z,97067.50
2022-10-09T11:57:28.963Z,97068.78
2022-10-09T11:58:30.557Z,97066.06
2022-10-09T11:59:36.147Z,97065.34
2022-10-09T12:00:37.960Z,97067.56
2022-10-09T12:01:41.444Z,97068.34
2022-10-09T12:02:44.263Z,97061.78
2022-10-09T12:03:45.902Z,97055.13
2022-10-09T12:04:54.980Z,97052.78
2022-10-09T12:06:05.712Z,97057.72
2022-10-09T12:07:09.372Z,97054.88
2022-10-09T12:08:19.186Z,97049.66
2022-10-09T12:09:30.430Z,97049.22
2022-10-09T12:10:33.979Z,97045.13
2022-10-09T12:11:35.946Z,97051.44
2022-10-09T12:12:38.879Z,97052.31
2022-10-09T12:13:45.838Z,97048.50
2022-10-09T12:14:50.145Z,97050.28
2022-10-09T12:15:51.625Z,97044.78
2022-10-09T12:16:54.330Z,97043.81
2022-10-09T12:17:55.932Z,97045.44
2022-10-09T12:19:00.337Z,97047.09
2022-10-09T12:20:08.773Z,97043.66
2022-10-09T12:21:24.763Z,97037.91
2022-10-09T12:22:40.724Z,97039.09
2022-10-09T12:23:42.605Z,97031.69
2022-10-09T12:24:51.569Z,97038.03
2022-10-09T12:25:54.695Z,97038.81
2022-10-09T12:27:00.500Z,97026.22
2022-10-09T12:28:02.850Z,97012.88
2022-10-09T12:29:05.301Z,97022.47
2022-10-09T12:30:13.425Z,97019.31
2022-10-09T12:31:24.108Z,97018.16
2022-10-09T12:32:39.600Z,97018.41
2022-10-09T12:33:47.992Z,97018.06
2022-10-09T12:34:51.144Z,97013.31
2022-10-09T12:36:12.515Z,97021.53
2022-10-09T12:37:16.255Z,97014.03
2022-10-09T12:38:24.666Z,97004.38
2022-10-09T12:39:26.241Z,97007.94
2022-10-09T12:40:31.072Z,97014.63
2022-10-09T12:41:34.434Z,97004.53
2022-10-09T12:42:36.337Z,97004.97
2022-10-09T12:43:45.087Z,96997.63
2022-10-09T12:44:48.642Z,97004.28
2022-10-09T12:45:52.756Z,97008.09
2022-10-09T12:46:54.909Z,97003.75
2022-10-09T12:48:09.182Z,96999.19
2022-10-09T12:49:21.906Z,97006.16
2022-10-09T12:50:26.936Z,96997.53
2022-10-09T12:51:31.456Z,97003.00